createdAt,value
2019-04-10T00:01:01.545Z,3.00
2019-04-10T00:03:33.659Z,2.43
2019-04-10T00:06:02.600Z,3.60
2019-04-10T00:08:32.465Z,2.43
2019-04-10T00:11:02.652Z,2.87
2019-04-10T00:13:32.239Z,2.83
2019-04-10T00:16:03.583Z,3.10
2019-04-10T00:18:33.795Z,2.40
2019-04-10T00:21:03.428Z,2.30
2019-04-10T00:23:33.212Z,2.70
2019-04-10T00:26:03.603Z,3.00
2019-04-10T00:28:33.853Z,2.93
2019-04-10T00:31:03.578Z,2.60
2019-04-10T00:33:33.166Z,2.87
2019-04-10T00:36:03.730Z,3.10
2019-04-10T00:38:34.353Z,2.67
2019-04-10T00:41:04.575Z,2.80
2019-04-10T00:43:35.031Z,2.50
2019-04-10T00:46:06.200Z,3.47
2019-04-10T00:48:36.270Z,3.30
2019-04-10T00:51:06.696Z,3.03
2019-04-10T00:53:37.214Z,2.70
2019-04-10T00:56:08.293Z,2.65
2019-04-10T00:58:37.873Z,3.27
2019-04-10T01:01:07.829Z,3.30
2019-04-10T01:03:43.908Z,3.50
2019-04-10T01:06:15.668Z,3.70
2019-04-10T01:08:45.401Z,2.57
2019-04-10T01:11:15.227Z,2.83
2019-04-10T01:13:45.564Z,2.83
2019-04-10T01:16:16.417Z,2.75
2019-04-10T01:18:46.467Z,4.20
2019-04-10T01:21:15.975Z,3.25
2019-04-10T01:23:45.487Z,3.33
2019-04-10T01:26:15.051Z,2.80
2019-04-10T01:28:45.129Z,2.50
2019-04-10T01:31:15.135Z,2.90
2019-04-10T01:33:46.054Z,3.43
2019-04-10T01:36:16.169Z,3.55
2019-04-10T01:38:46.207Z,3.37
2019-04-10T01:41:15.999Z,3.77
2019-04-10T01:43:45.514Z,3.13
2019-04-10T01:46:16.020Z,3.20
2019-04-10T01:48:45.630Z,3.50
2019-04-10T01:51:15.228Z,3.42
2019-04-10T01:53:44.813Z,3.70
2019-04-10T01:56:23.899Z,3.50
2019-04-10T01:58:47.783Z,4.70
2019-04-10T02:01:20.791Z,2.62
2019-04-10T02:03:50.256Z,3.40
2019-04-10T02:06:19.783Z,3.43
2019-04-10T02:08:49.979Z,3.05
2019-04-10T02:11:19.672Z,3.63
2019-04-10T02:13:49.716Z,3.37
2019-04-10T02:16:19.275Z,3.03
2019-04-10T02:18:49.892Z,2.83
2019-04-10T02:21:19.993Z,3.00
2019-04-10T02:23:50.299Z,3.30
2019-04-10T02:26:19.860Z,2.90
2019-04-10T02:28:49.362Z,2.70
2019-04-10T02:31:19.650Z,3.57
2019-04-10T02:33:51.617Z,3.70
2019-04-10T02:36:21.418Z,3.50
2019-04-10T02:39:04.614Z,4.47
2019-04-10T02:41:22.183Z,3.17
2019-04-10T02:43:51.665Z,3.87
2019-04-10T02:46:21.975Z,3.03
2019-04-10T02:48:52.074Z,3.47
2019-04-10T02:51:23.197Z,3.00
2019-04-10T02:53:53.841Z,3.87
2019-04-10T02:56:25.352Z,3.73
2019-04-10T02:58:56.688Z,2.97
2019-04-10T03:01:27.280Z,3.00
2019-04-10T03:03:56.999Z,3.17
2019-04-10T03:06:29.190Z,3.60
2019-04-10T03:09:14.731Z,3.07
2019-04-10T03:11:33.103Z,3.83
2019-04-10T03:14:04.476Z,3.03
2019-04-10T03:16:35.389Z,3.30
2019-04-10T03:19:05.886Z,3.23
2019-04-10T03:21:35.503Z,3.50
2019-04-10T03:24:06.212Z,3.60
2019-04-10T03:26:35.799Z,3.72
2019-04-10T03:29:05.348Z,3.50
2019-04-10T03:31:36.717Z,2.92
2019-04-10T03:34:22.948Z,3.30
2019-04-10T03:36:53.803Z,3.50
2019-04-10T03:39:23.709Z,3.37
2019-04-10T03:41:53.331Z,3.90
2019-04-10T03:44:23.085Z,3.02
2019-04-10T03:46:53.784Z,4.87
2019-04-10T03:49:23.434Z,3.93
2019-04-10T03:51:52.945Z,3.05
2019-04-10T03:54:22.918Z,3.63
2019-04-10T03:56:54.107Z,3.90
2019-04-10T03:59:24.367Z,3.20
2019-04-10T04:01:53.912Z,3.73
2019-04-10T04:04:23.745Z,3.83
2019-04-10T04:06:53.384Z,3.77
2019-04-10T04:09:23.778Z,3.33
2019-04-10T04:11:53.734Z,3.47
2019-04-10T04:14:24.213Z,2.93
2019-04-10T04:16:53.827Z,3.83
2019-04-10T04:19:24.070Z,2.77
2019-04-10T04:21:54.629Z,3.63
2019-04-10T04:24:26.496Z,3.13
2019-04-10T04:26:57.262Z,3.30
2019-04-10T04:29:27.033Z,3.87
2019-04-10T04:31:56.945Z,3.80
2019-04-10T04:34:27.207Z,4.00
2019-04-10T04:36:56.787Z,3.43
2019-04-10T04:39:28.421Z,3.67
2019-04-10T04:41:58.718Z,3.60
2019-04-10T04:44:29.210Z,3.23
2019-04-10T04:46:59.146Z,3.57
2019-04-10T04:49:28.737Z,4.13
2019-04-10T04:51:58.249Z,3.07
2019-04-10T04:54:28.831Z,4.00
2019-04-10T04:56:58.453Z,3.20
2019-04-10T04:59:28.166Z,4.03
2019-04-10T05:01:57.666Z,3.00
2019-04-10T05:04:27.188Z,4.00
2019-04-10T05:06:58.371Z,3.40
2019-04-10T05:09:35.134Z,4.10
2019-04-10T05:11:59.287Z,4.83
2019-04-10T05:14:29.472Z,4.37
2019-04-10T05:16:59.518Z,4.20
2019-04-10T05:19:29.729Z,2.92
2019-04-10T05:21:59.547Z,4.12
2019-04-10T05:24:30.064Z,4.23
2019-04-10T05:26:59.715Z,4.30
2019-04-10T05:29:30.801Z,4.13
2019-04-10T05:32:01.049Z,3.10
2019-04-10T05:34:31.016Z,3.90
2019-04-10T05:37:01.006Z,4.00
2019-04-10T05:39:42.553Z,4.10
2019-04-10T05:42:02.877Z,3.90
2019-04-10T05:44:32.339Z,4.50
2019-04-10T05:47:03.367Z,4.62
2019-04-10T05:49:33.179Z,3.87
2019-04-10T05:52:02.767Z,4.93
2019-04-10T05:54:33.317Z,4.50
2019-04-10T05:57:03.997Z,4.75
2019-04-10T05:59:34.271Z,4.73
2019-04-10T06:02:05.106Z,4.30
2019-04-10T06:04:35.686Z,4.28
2019-04-10T06:07:05.355Z,3.95
2019-04-10T06:09:34.983Z,4.25
2019-04-10T06:12:05.787Z,5.00
2019-04-10T06:14:37.940Z,4.33
2019-04-10T06:17:08.581Z,3.33
2019-04-10T06:19:38.139Z,4.80
2019-04-10T06:22:09.599Z,5.03
2019-04-10T06:24:38.867Z,4.53
2019-04-10T06:27:08.402Z,4.47
2019-04-10T06:29:39.217Z,4.12
2019-04-10T06:32:09.488Z,5.03
2019-04-10T06:34:39.785Z,4.50
2019-04-10T06:37:10.238Z,4.97
2019-04-10T06:39:41.997Z,6.53
2019-04-10T06:42:12.089Z,5.20
2019-04-10T06:44:41.859Z,6.67
2019-04-10T06:47:11.941Z,5.30
2019-04-10T06:49:41.500Z,5.87
2019-04-10T06:52:11.032Z,5.80
2019-04-10T06:54:40.741Z,4.83
2019-04-10T06:57:10.494Z,4.95
2019-04-10T06:59:39.978Z,5.55
2019-04-10T07:02:20.303Z,4.58
2019-04-10T07:04:46.075Z,5.30
2019-04-10T07:07:15.544Z,5.05
2019-04-10T07:09:43.755Z,4.90
2019-04-10T07:12:14.384Z,4.67
2019-04-10T07:14:47.709Z,5.30
2019-04-10T07:17:15.996Z,5.10
2019-04-10T07:19:46.056Z,4.72
2019-04-10T07:22:17.505Z,5.93
2019-04-10T07:24:48.207Z,5.17
2019-04-10T07:27:17.802Z,6.00
2019-04-10T07:29:50.837Z,5.80
2019-04-10T07:32:19.438Z,4.87
2019-04-10T07:34:50.806Z,5.10
2019-04-10T07:37:23.050Z,5.30
2019-04-10T07:39:51.592Z,5.55
2019-04-10T07:42:29.426Z,6.00
2019-04-10T07:44:56.220Z,6.57
2019-04-10T07:47:23.776Z,4.53
2019-04-10T07:49:54.521Z,4.47
2019-04-10T07:52:24.511Z,4.60
2019-04-10T07:54:56.613Z,4.10
2019-04-10T07:57:26.685Z,5.17
2019-04-10T07:59:56.793Z,5.15
2019-04-10T08:02:27.498Z,4.33
2019-04-10T08:04:58.201Z,4.83
2019-04-10T08:07:32.884Z,5.10
2019-04-10T08:09:59.309Z,5.43
2019-04-10T08:12:39.517Z,4.87
2019-04-10T08:15:00.675Z,5.12
2019-04-10T08:17:30.437Z,4.53
2019-04-10T08:20:00.026Z,5.93
2019-04-10T08:22:30.735Z,4.60
2019-04-10T08:25:00.271Z,4.73
2019-04-10T08:27:29.985Z,4.53
2019-04-10T08:30:01.895Z,4.27
2019-04-10T08:32:40.508Z,4.83
2019-04-10T08:35:07.013Z,4.60
2019-04-10T08:37:36.914Z,4.90
2019-04-10T08:40:07.631Z,4.50
2019-04-10T08:42:37.338Z,5.20
2019-04-10T08:45:07.184Z,5.30
2019-04-10T08:47:37.517Z,5.50
2019-04-10T08:50:07.819Z,4.87
2019-04-10T08:52:37.540Z,4.30
2019-04-10T08:55:07.963Z,4.30
2019-04-10T08:57:38.252Z,3.97
2019-04-10T09:00:08.468Z,5.40
2019-04-10T09:02:38.222Z,5.20
2019-04-10T09:05:07.792Z,6.12
2019-04-10T09:07:38.210Z,4.20
2019-04-10T09:10:08.204Z,5.50
2019-04-10T09:12:38.867Z,5.05
2019-04-10T09:15:09.825Z,4.87
2019-04-10T09:17:39.676Z,6.20
2019-04-10T09:20:10.956Z,5.47
2019-04-10T09:23:07.813Z,4.83
2019-04-10T09:25:16.112Z,4.47
2019-04-10T09:27:46.323Z,4.65
2019-04-10T09:30:16.483Z,5.33
2019-04-10T09:32:46.517Z,6.10
2019-04-10T09:35:16.468Z,5.17
2019-04-10T09:37:48.353Z,5.10
2019-04-10T09:40:18.293Z,5.20
2019-04-10T09:42:48.056Z,5.33
2019-04-10T09:45:17.859Z,5.73
2019-04-10T09:47:48.053Z,6.40
2019-04-10T09:50:17.753Z,5.80
2019-04-10T09:52:48.274Z,5.00
2019-04-10T09:55:18.093Z,4.20
2019-04-10T09:57:47.656Z,4.87
2019-04-10T10:00:19.171Z,5.20
2019-04-10T10:02:48.698Z,5.73
2019-04-10T10:05:18.256Z,4.80
2019-04-10T10:07:48.648Z,5.10
2019-04-10T10:10:18.348Z,5.17
2019-04-10T10:12:48.512Z,4.97
2019-04-10T10:15:18.965Z,5.20
2019-04-10T10:17:48.802Z,4.92
2019-04-10T10:20:19.719Z,5.07
2019-04-10T10:22:49.536Z,4.87
2019-04-10T10:25:19.460Z,5.23
2019-04-10T10:27:49.000Z,4.80
2019-04-10T10:30:19.595Z,4.50
2019-04-10T10:32:49.188Z,4.80
2019-04-10T10:35:18.942Z,4.83
2019-04-10T10:37:48.548Z,4.87
2019-04-10T10:40:19.209Z,4.93
2019-04-10T10:42:48.798Z,4.45
2019-04-10T10:45:20.780Z,5.60
2019-04-10T10:47:50.661Z,4.50
2019-04-10T10:50:22.096Z,4.50
2019-04-10T10:52:52.129Z,4.70
2019-04-10T10:55:21.811Z,5.20
2019-04-10T10:57:51.333Z,5.20
2019-04-10T11:00:23.103Z,4.80
2019-04-10T11:02:53.926Z,4.67
2019-04-10T11:05:23.658Z,4.93
2019-04-10T11:07:53.181Z,4.45
2019-04-10T11:10:27.077Z,4.30
2019-04-10T11:12:55.257Z,4.08
2019-04-10T11:15:26.121Z,4.80
2019-04-10T11:17:56.151Z,5.03
2019-04-10T11:20:27.962Z,5.03
2019-04-10T11:23:00.361Z,4.03
2019-04-10T11:25:30.129Z,4.40
2019-04-10T11:28:00.197Z,4.13
2019-04-10T11:30:30.316Z,4.47
2019-04-10T11:33:00.117Z,4.10
2019-04-10T11:35:31.669Z,5.20
2019-04-10T11:38:04.763Z,4.83
2019-04-10T11:40:34.333Z,5.03
2019-04-10T11:43:05.259Z,4.50
2019-04-10T11:48:07.863Z,4.20
2019-04-10T11:50:38.426Z,5.00
2019-04-10T11:53:10.277Z,4.70
2019-04-10T11:55:46.913Z,5.20
2019-04-10T11:58:15.583Z,5.50
2019-04-10T12:00:50.567Z,4.87
2019-04-10T12:03:15.988Z,4.85
2019-04-10T12:05:48.034Z,4.97
2019-04-10T12:13:19.719Z,4.53
2019-04-10T12:15:50.386Z,4.10
2019-04-10T12:18:21.008Z,4.70
2019-04-10T12:20:51.499Z,4.60
2019-04-10T12:23:23.113Z,4.85
2019-04-10T12:25:53.589Z,4.67
2019-04-10T12:28:25.606Z,4.90
2019-04-10T12:30:55.475Z,4.70
2019-04-10T12:33:25.518Z,5.30
2019-04-10T12:35:55.987Z,5.10
2019-04-10T12:38:25.863Z,5.40
2019-04-10T12:40:55.521Z,4.20
2019-04-10T12:43:25.945Z,4.80
2019-04-10T12:45:56.796Z,5.17
2019-04-10T12:48:26.468Z,4.50
2019-04-10T12:50:56.936Z,4.57
2019-04-10T12:53:27.514Z,4.07
2019-04-10T12:55:57.787Z,4.35
2019-04-10T12:58:27.501Z,4.40
2019-04-10T13:00:57.003Z,3.70
2019-04-10T13:03:27.276Z,4.40
2019-04-10T13:05:57.724Z,4.43
2019-04-10T13:08:48.306Z,3.73
2019-04-10T13:10:58.506Z,3.50
2019-04-10T13:13:28.640Z,4.30
2019-04-10T13:15:59.371Z,4.47
2019-04-10T13:18:30.189Z,4.37
2019-04-10T13:20:59.658Z,4.13
2019-04-10T13:23:29.324Z,3.40
2019-04-10T13:26:01.750Z,3.80
2019-04-10T13:28:30.131Z,4.00
2019-04-10T13:30:59.674Z,4.30
2019-04-10T13:33:29.228Z,3.50
2019-04-10T13:35:59.541Z,4.20
2019-04-10T13:38:33.693Z,3.10
2019-04-10T13:41:00.369Z,3.30
2019-04-10T13:43:30.954Z,3.57
2019-04-10T13:46:00.592Z,3.02
2019-04-10T13:48:31.453Z,4.03
2019-04-10T13:51:01.259Z,3.30
2019-04-10T13:53:30.743Z,3.57
2019-04-10T13:56:01.005Z,3.30
2019-04-10T13:58:31.052Z,3.87
2019-04-10T14:01:01.032Z,3.70
2019-04-10T14:03:31.610Z,3.42
2019-04-10T14:06:01.436Z,4.00
2019-04-10T14:08:47.227Z,3.63
2019-04-10T14:11:02.956Z,3.30
2019-04-10T14:13:32.629Z,3.40
2019-04-10T14:16:02.496Z,2.97
2019-04-10T14:18:32.940Z,2.93
2019-04-10T14:21:07.514Z,3.67
2019-04-10T14:23:35.307Z,3.70
2019-04-10T14:26:24.548Z,3.37
2019-04-10T14:28:54.091Z,2.93
2019-04-10T14:31:29.875Z,3.27
2019-04-10T14:34:00.365Z,2.80
2019-04-10T14:36:31.866Z,3.50
2019-04-10T14:39:10.035Z,3.17
2019-04-10T14:41:34.594Z,2.40
2019-04-10T14:44:04.166Z,3.27
2019-04-10T14:46:33.746Z,2.83
2019-04-10T14:49:03.318Z,3.00
2019-04-10T14:51:32.924Z,3.17
2019-04-10T14:54:03.760Z,2.53
2019-04-10T14:56:34.463Z,2.23
2019-04-10T14:59:04.167Z,2.30
2019-04-10T15:01:33.732Z,2.80
2019-04-10T15:04:04.645Z,3.00
2019-04-10T15:06:34.343Z,2.03
2019-04-10T15:09:04.622Z,2.47
2019-04-10T15:11:34.947Z,2.13
2019-04-10T15:14:05.599Z,2.50
2019-04-10T15:16:35.248Z,2.43
2019-04-10T15:19:04.834Z,2.50
2019-04-10T15:21:34.722Z,2.37
2019-04-10T15:24:04.328Z,2.63
2019-04-10T15:26:33.857Z,2.43
2019-04-10T15:29:03.896Z,2.90
2019-04-10T15:31:33.417Z,2.20
2019-04-10T15:34:03.677Z,2.40
2019-04-10T15:36:33.975Z,2.53
2019-04-10T15:39:06.471Z,2.87
2019-04-10T15:41:36.152Z,2.87
2019-04-10T15:44:07.859Z,2.13
2019-04-10T15:46:37.426Z,2.60
2019-04-10T15:49:07.072Z,2.25
2019-04-10T15:51:36.611Z,2.50
2019-04-10T15:54:06.191Z,2.63
2019-04-10T15:56:36.122Z,3.20
2019-04-10T15:59:06.077Z,2.50
2019-04-10T16:01:35.718Z,2.43
2019-04-10T16:04:05.328Z,2.43
2019-04-10T16:06:35.543Z,2.87
2019-04-10T16:09:07.196Z,2.40
2019-04-10T16:11:52.259Z,3.00
2019-04-10T16:14:25.380Z,2.70
2019-04-10T16:17:22.474Z,3.00
2019-04-10T16:20:11.354Z,2.83
2019-04-10T16:22:44.797Z,2.05
2019-04-10T16:25:20.003Z,2.37
2019-04-10T16:27:50.014Z,2.73
2019-04-10T16:30:22.125Z,2.10
2019-04-10T16:32:52.327Z,3.30
2019-04-10T16:35:23.101Z,3.17
2019-04-10T16:37:52.688Z,2.57
2019-04-10T16:40:23.247Z,2.47
2019-04-10T16:42:53.027Z,2.70
2019-04-10T16:45:22.672Z,2.30
2019-04-10T16:47:52.566Z,2.90
2019-04-10T16:50:22.206Z,2.50
2019-04-10T16:52:51.795Z,2.60
2019-04-10T16:55:21.349Z,2.90
2019-04-10T16:57:51.427Z,3.02
2019-04-10T17:00:22.235Z,2.92
2019-04-10T17:02:52.740Z,1.95
2019-04-10T17:05:22.708Z,2.67
2019-04-10T17:07:55.285Z,2.20
2019-04-10T17:10:27.519Z,3.02
2019-04-10T17:12:56.420Z,2.03
2019-04-10T17:15:26.124Z,2.20
2019-04-10T17:17:56.823Z,2.67
2019-04-10T17:20:27.189Z,2.30
2019-04-10T17:22:56.738Z,2.70
2019-04-10T17:25:28.353Z,2.87
2019-04-10T17:27:58.256Z,2.93
2019-04-10T17:30:27.839Z,2.70
2019-04-10T17:32:57.423Z,2.10
2019-04-10T17:35:27.602Z,2.55
2019-04-10T17:37:58.152Z,2.10
2019-04-10T17:40:35.460Z,2.37
2019-04-10T17:42:58.945Z,1.98
2019-04-10T17:45:29.270Z,2.10
2019-04-10T17:47:58.946Z,2.50
2019-04-10T17:50:30.050Z,1.97
2019-04-10T17:53:00.830Z,2.67
2019-04-10T17:55:31.503Z,2.30
2019-04-10T17:58:03.196Z,2.47
2019-04-10T18:00:39.851Z,2.70
2019-04-10T18:03:10.846Z,2.47
2019-04-10T18:05:40.621Z,2.40
2019-04-10T18:08:10.575Z,2.47
2019-04-10T18:10:48.766Z,2.43
2019-04-10T18:13:13.421Z,2.17
2019-04-10T18:15:44.149Z,2.00
2019-04-10T18:18:13.865Z,2.00
2019-04-10T18:20:44.412Z,2.17
2019-04-10T18:23:14.104Z,2.10
2019-04-10T18:25:44.429Z,2.30
2019-04-10T18:28:15.001Z,1.87
2019-04-10T18:30:44.519Z,2.37
2019-04-10T18:33:14.256Z,2.10
2019-04-10T18:35:43.819Z,2.20
2019-04-10T18:38:13.456Z,2.40
2019-04-10T18:40:53.238Z,2.10
2019-04-10T18:43:14.337Z,2.60
2019-04-10T18:45:54.754Z,2.33
2019-04-10T18:48:15.132Z,2.10
2019-04-10T18:50:45.408Z,2.50
2019-04-10T18:53:15.143Z,2.30
2019-04-10T18:55:44.878Z,1.93
2019-04-10T18:58:17.155Z,2.27
2019-04-10T19:01:05.151Z,2.50
2019-04-10T19:03:59.177Z,2.12
2019-04-10T19:06:36.898Z,2.80
2019-04-10T19:09:14.260Z,2.83
2019-04-10T19:11:39.879Z,2.80
2019-04-10T19:14:09.615Z,3.00
2019-04-10T19:16:41.570Z,2.00
2019-04-10T19:19:12.070Z,2.57
2019-04-10T19:21:42.164Z,2.30
2019-04-10T19:24:12.064Z,2.17
2019-04-10T19:26:41.622Z,2.67
2019-04-10T19:29:11.202Z,2.10
2019-04-10T19:31:43.674Z,2.10
2019-04-10T19:34:13.297Z,2.37
2019-04-10T19:36:43.885Z,2.72
2019-04-10T19:39:14.043Z,2.90
2019-04-10T19:41:44.826Z,2.77
2019-04-10T19:44:14.947Z,2.30
2019-04-10T19:46:45.974Z,2.70
2019-04-10T19:49:16.410Z,2.50
2019-04-10T19:51:46.724Z,2.60
2019-04-10T19:54:16.358Z,2.53
2019-04-10T19:56:45.942Z,3.87
2019-04-10T19:59:16.619Z,2.40
2019-04-10T20:01:46.565Z,2.80
2019-04-10T20:04:18.746Z,3.05
2019-04-10T20:06:47.295Z,2.87
2019-04-10T20:09:18.423Z,2.67
2019-04-10T20:11:52.535Z,2.33
2019-04-10T20:14:20.053Z,3.03
2019-04-10T20:16:51.257Z,2.80
2019-04-10T20:19:20.834Z,2.60
2019-04-10T20:21:50.591Z,2.90
2019-04-10T20:24:20.786Z,2.20
2019-04-10T20:26:50.288Z,2.60
2019-04-10T20:29:21.150Z,2.43
2019-04-10T20:31:51.804Z,2.50
2019-04-10T20:34:21.323Z,2.80
2019-04-10T20:36:50.797Z,2.93
2019-04-10T20:39:21.096Z,2.60
2019-04-10T20:41:54.688Z,3.20
2019-04-10T20:44:22.748Z,2.60
2019-04-10T20:46:52.763Z,2.70
2019-04-10T20:49:23.335Z,2.20
2019-04-10T20:51:53.668Z,2.60
2019-04-10T20:54:24.501Z,2.83
2019-04-10T20:56:55.197Z,2.37
2019-04-10T20:59:24.707Z,3.43
2019-04-10T21:01:54.251Z,2.22
2019-04-10T21:04:23.740Z,3.07
2019-04-10T21:06:54.394Z,2.80
2019-04-10T21:09:23.955Z,3.13
2019-04-10T21:12:01.991Z,2.30
2019-04-10T21:14:24.690Z,2.97
2019-04-10T21:16:54.289Z,2.83
2019-04-10T21:19:24.835Z,2.60
2019-04-10T21:21:55.345Z,2.57
2019-04-10T21:24:25.287Z,3.07
2019-04-10T21:26:54.907Z,2.10
2019-04-10T21:29:42.227Z,2.95
2019-04-10T21:32:24.254Z,2.50
2019-04-10T21:34:53.751Z,2.60
2019-04-10T21:37:24.279Z,2.50
2019-04-10T21:39:54.194Z,2.80
2019-04-10T21:42:25.762Z,2.53
2019-04-10T21:44:55.441Z,2.40
2019-04-10T21:47:25.688Z,2.70
2019-04-10T21:49:55.133Z,2.67
2019-04-10T21:52:25.105Z,3.33
2019-04-10T21:54:58.794Z,2.80
2019-04-10T21:57:26.461Z,3.33
2019-04-10T21:59:56.079Z,2.73
2019-04-10T22:02:25.679Z,2.52
2019-04-10T22:04:55.368Z,2.80
2019-04-10T22:07:40.524Z,3.40
2019-04-10T22:10:26.023Z,2.87
2019-04-10T22:12:55.502Z,2.72
2019-04-10T22:15:37.414Z,2.70
2019-04-10T22:18:07.316Z,2.40
2019-04-10T22:20:36.816Z,2.63
2019-04-10T22:23:07.534Z,2.67
2019-04-10T22:25:37.439Z,3.00
2019-04-10T22:28:08.344Z,3.70
2019-04-10T22:30:37.952Z,3.10
2019-04-10T22:33:07.704Z,2.70
2019-04-10T22:35:37.273Z,3.23
2019-04-10T22:38:06.967Z,2.73
2019-04-10T22:40:36.471Z,3.27
2019-04-10T22:43:05.993Z,3.10
2019-04-10T22:45:36.038Z,3.90
2019-04-10T22:48:06.248Z,3.27
2019-04-10T22:50:36.509Z,3.40
2019-04-10T22:53:06.868Z,3.60
2019-04-10T22:55:36.466Z,2.77
2019-04-10T22:58:06.081Z,3.27
2019-04-10T23:00:35.628Z,2.80
2019-04-10T23:03:05.720Z,4.05
2019-04-10T23:05:36.467Z,2.90
2019-04-10T23:08:07.335Z,3.03
2019-04-10T23:10:37.260Z,3.70
2019-04-10T23:13:08.658Z,3.33
2019-04-10T23:15:38.416Z,3.97
2019-04-10T23:18:07.947Z,4.35
2019-04-10T23:20:37.602Z,3.00
2019-04-10T23:23:07.168Z,3.20
2019-04-10T23:25:36.768Z,3.80
2019-04-10T23:28:07.457Z,3.53
2019-04-10T23:30:37.313Z,4.00
2019-04-10T23:33:07.961Z,3.50
2019-04-10T23:35:37.966Z,3.77
2019-04-10T23:38:07.701Z,3.90
2019-04-10T23:40:37.337Z,3.70
2019-04-10T23:43:12.890Z,3.03
2019-04-10T23:45:38.268Z,3.40
2019-04-10T23:48:08.756Z,3.33
2019-04-10T23:50:40.569Z,4.00
2019-04-10T23:53:10.132Z,2.80
2019-04-10T23:55:41.734Z,3.80
2019-04-10T23:58:11.478Z,3.10
